createdAt,value
2016-07-28T18:13:14.862Z,75.68
2016-07-28T18:14:14.855Z,76.03
2016-07-28T18:15:15.044Z,76.22
2016-07-28T18:16:14.837Z,76.42
2016-07-28T18:17:14.832Z,76.61
2016-07-28T18:18:14.828Z,76.61
2016-07-28T18:19:14.822Z,76.8
2016-07-28T18:20:14.816Z,77.19
2016-07-28T18:21:14.810Z,76.93
2016-07-28T18:22:14.807Z,77.9
2016-07-28T18:23:14.802Z,78.38
2016-07-28T18:24:14.799Z,78.38
2016-07-28T18:25:14.796Z,79.25
2016-07-28T18:26:14.794Z,78.87
2016-07-28T18:27:14.792Z,79.93
2016-07-28T18:28:14.787Z,79.83
2016-07-28T18:29:14.788Z,79.97
2016-07-28T18:30:14.784Z,79.68
2016-07-28T18:31:14.781Z,79.87
2016-07-28T18:32:14.772Z,79.39
2016-07-28T18:33:14.786Z,79.39
2016-07-28T18:34:14.774Z,79.29
2016-07-28T18:35:14.772Z,79.39
2016-07-28T18:36:14.794Z,78.56
2016-07-28T18:37:14.776Z,78.75
2016-07-28T18:38:14.771Z,78.46
2016-07-28T18:39:14.775Z,78.27
2016-07-28T18:40:14.781Z,77.69
2016-07-28T18:41:14.776Z,77.5
2016-07-28T18:42:14.772Z,77.11
2016-07-28T18:43:14.772Z,77.4
2016-07-28T18:44:14.770Z,76.82
2016-07-28T18:45:14.773Z,76.95
2016-07-28T18:46:14.775Z,76.66
2016-07-28T18:47:14.777Z,76.28
2016-07-28T18:48:14.772Z,76.46
2016-07-28T18:49:14.771Z,75.98
2016-07-28T18:50:14.774Z,75.89
2016-07-28T18:51:14.772Z,75.7
2016-07-28T18:52:14.775Z,75.7
2016-07-28T18:53:14.771Z,75.31
2016-07-28T18:54:14.775Z,74.76
2016-07-28T18:55:14.980Z,74.86
2016-07-28T18:56:14.772Z,74.86
2016-07-28T18:57:14.777Z,74.38
2016-07-28T18:58:14.782Z,74.57
2016-07-28T18:59:14.834Z,73.79
2016-07-28T19:00:14.779Z,73.79
2016-07-28T19:01:14.775Z,73.99
2016-07-28T19:02:14.785Z,73.69
2016-07-28T19:03:14.781Z,73.25
2016-07-28T19:04:14.780Z,73.11
2016-07-28T19:05:14.786Z,72.92
2016-07-28T19:06:14.783Z,73.05
2016-07-28T19:07:14.778Z,72.92
2016-07-28T19:08:14.786Z,72.86
2016-07-28T19:09:14.790Z,72.96
2016-07-28T19:10:14.790Z,72.57
2016-07-28T19:11:14.990Z,72.57
2016-07-28T19:12:14.793Z,72.28
2016-07-28T19:13:14.792Z,72.38
2016-07-28T19:14:14.792Z,71.8
2016-07-28T19:15:14.792Z,71.8
2016-07-28T19:16:14.788Z,71.8
2016-07-28T19:17:14.794Z,71.89
2016-07-28T19:18:14.799Z,71.15
2016-07-28T19:19:14.802Z,71.31
2016-07-28T19:20:14.798Z,71.6
2016-07-28T19:21:14.801Z,71.8
2016-07-28T19:22:14.808Z,71.25
2016-07-28T19:23:14.804Z,71.15
2016-07-28T19:24:14.806Z,71.25
2016-07-28T19:25:14.803Z,71.25
2016-07-28T19:26:14.806Z,71.25
2016-07-28T19:27:14.810Z,71.25
2016-07-28T19:28:14.812Z,71.15
2016-07-28T19:29:14.817Z,71.34
2016-07-28T19:30:14.814Z,71.25
2016-07-28T19:31:14.812Z,70.86
2016-07-28T19:32:14.818Z,71.34
2016-07-28T19:33:14.821Z,71.06
2016-07-28T19:34:14.822Z,71.15
2016-07-28T19:35:14.820Z,71.34
2016-07-28T19:36:14.820Z,71.25
2016-07-28T19:37:14.821Z,71.44
2016-07-28T19:38:14.828Z,71.25
2016-07-28T19:39:14.828Z,71.15
2016-07-28T19:40:14.828Z,71.44
2016-07-28T19:41:14.829Z,71.48
2016-07-28T19:42:14.839Z,71.54
2016-07-28T19:43:14.835Z,71.54
2016-07-28T19:44:14.836Z,71.64
2016-07-28T19:45:15.040Z,71.48
2016-07-28T19:46:14.833Z,71.44
2016-07-28T19:47:14.836Z,71.44
2016-07-28T19:48:14.840Z,71.44
2016-07-28T19:49:14.842Z,71.58
2016-07-28T19:50:14.844Z,71.54
2016-07-28T19:51:14.844Z,71.48
2016-07-28T19:52:14.846Z,71.58
2016-07-28T19:53:14.847Z,71.58
2016-07-28T19:54:14.848Z,71.58
2016-07-28T19:55:14.852Z,71.48
2016-07-28T19:56:14.851Z,71.48
2016-07-28T19:57:14.857Z,71.48
2016-07-28T19:58:14.859Z,71.09
2016-07-28T19:59:14.906Z,71.38
2016-07-28T20:00:14.860Z,71.58
2016-07-28T20:01:15.066Z,71.38
2016-07-28T20:02:14.862Z,71.28
2016-07-28T20:03:14.867Z,71.28
2016-07-28T20:04:14.868Z,71.19
2016-07-28T20:05:14.866Z,71.09
2016-07-28T20:06:15.072Z,71.09
2016-07-28T20:07:14.873Z,70.99
2016-07-28T20:08:14.870Z,70.99
2016-07-28T20:09:14.872Z,70.99
2016-07-28T20:10:14.874Z,70.61
2016-07-28T20:11:14.883Z,70.8
2016-07-28T20:12:14.879Z,70.7
2016-07-28T20:13:15.089Z,70.8
2016-07-28T20:14:15.087Z,71.19
2016-07-28T20:15:15.086Z,71.09
2016-07-28T20:16:14.885Z,70.51
2016-07-28T20:17:15.088Z,70.51
2016-07-28T20:18:14.893Z,70.7
2016-07-28T20:19:14.982Z,70.8
2016-07-28T20:20:14.897Z,70.41
2016-07-28T20:21:14.897Z,70.31
2016-07-28T20:22:14.898Z,70.03
2016-07-28T20:23:14.901Z,70.41
2016-07-28T20:24:14.902Z,69.93
2016-07-28T20:25:14.908Z,70.03
2016-07-28T20:26:14.902Z,70.41
2016-07-28T20:27:14.902Z,70.03
2016-07-28T20:28:14.904Z,70.03
2016-07-28T20:29:14.911Z,70.06
2016-07-28T20:30:14.912Z,69.83
2016-07-28T20:31:14.915Z,69.93
2016-07-28T20:32:14.916Z,69.93
2016-07-28T20:33:14.920Z,69.83
2016-07-28T20:34:14.923Z,69.64
2016-07-28T20:35:14.930Z,69.76
2016-07-28T20:36:14.922Z,69.96
2016-07-28T20:37:14.924Z,69.54
2016-07-28T20:38:14.926Z,69.76
2016-07-28T20:39:14.929Z,69.34
2016-07-28T20:40:14.929Z,69.06
2016-07-28T20:41:14.931Z,69.34
2016-07-28T20:42:14.930Z,69.28
2016-07-28T20:43:14.939Z,69.18
2016-07-28T20:44:14.942Z,69.09
2016-07-28T20:45:14.938Z,69.06
2016-07-28T20:46:14.940Z,69.06
2016-07-28T20:47:14.947Z,69.06
2016-07-28T20:48:14.944Z,69.18
2016-07-28T20:49:15.145Z,69.06
2016-07-28T20:50:14.951Z,68.57
2016-07-28T20:51:14.950Z,68.47
2016-07-28T20:52:14.955Z,68.79
2016-07-28T20:53:14.953Z,68.79
2016-07-28T20:54:14.957Z,68.66
2016-07-28T20:55:15.160Z,68.66
2016-07-28T20:56:14.959Z,68.47
2016-07-28T20:57:14.966Z,67.99
2016-07-28T20:58:14.963Z,68.37
2016-07-28T20:59:15.218Z,68.31
2016-07-28T21:00:15.178Z,68.57
2016-07-28T21:01:14.966Z,68.57
2016-07-28T21:02:14.973Z,68.02
2016-07-28T21:03:14.971Z,68.12
2016-07-28T21:04:15.176Z,68.08
2016-07-28T21:05:14.975Z,67.99
2016-07-28T21:06:14.978Z,67.89
2016-07-28T21:07:14.977Z,67.99
2016-07-28T21:08:14.983Z,67.73
2016-07-28T21:09:15.189Z,67.6
2016-07-28T21:10:14.982Z,67.99
2016-07-28T21:11:14.984Z,67.79
2016-07-28T21:12:14.986Z,67.6
2016-07-28T21:13:14.991Z,67.34
2016-07-28T21:14:14.988Z,67.6
2016-07-28T21:15:14.995Z,67.83
2016-07-28T21:16:14.998Z,67.79
2016-07-28T21:17:14.993Z,67.79
2016-07-28T21:18:14.995Z,67.83
2016-07-28T21:19:14.997Z,67.63
2016-07-28T21:20:14.994Z,67.83
2016-07-28T21:21:15.004Z,67.73
2016-07-28T21:22:15.008Z,67.69
2016-07-28T21:23:15.010Z,67.63
2016-07-28T21:24:15.010Z,67.4
2016-07-28T21:25:15.007Z,67.4
2016-07-28T21:26:15.014Z,67.4
2016-07-28T21:27:15.017Z,67.31
2016-07-28T21:28:15.013Z,67.11
2016-07-28T21:29:15.021Z,67.99
2016-07-28T21:30:15.021Z,67.31
2016-07-28T21:31:15.023Z,67.11
2016-07-28T21:32:15.022Z,67.31
2016-07-28T21:33:15.024Z,67.11
2016-07-28T21:34:15.025Z,67.05
2016-07-28T21:36:15.032Z,67.4
2016-07-28T21:37:15.038Z,67.21
2016-07-28T21:38:15.030Z,67.5
2016-07-28T21:39:15.038Z,67.4
2016-07-28T21:40:15.038Z,67.31
2016-07-28T21:41:15.037Z,67.21
2016-07-28T21:42:15.037Z,67.4
2016-07-28T21:43:15.046Z,67.31
2016-07-28T21:44:15.050Z,67.4
2016-07-28T21:45:15.052Z,66.82
2016-07-28T21:47:15.050Z,67.21
2016-07-28T21:48:15.057Z,66.92
2016-07-28T21:49:15.054Z,67.11
2016-07-28T21:50:15.056Z,67.02
2016-07-28T21:51:15.255Z,66.92
2016-07-28T21:52:15.258Z,66.92
2016-07-28T21:53:15.055Z,67.02
2016-07-28T21:54:15.067Z,67.02
2016-07-28T21:55:15.264Z,67.02
2016-07-28T21:56:15.061Z,67.11
2016-07-28T21:57:15.471Z,67.02
2016-07-28T21:58:15.066Z,67.11
2016-07-28T21:59:15.119Z,66.92
2016-07-28T22:00:15.074Z,66.92
2016-07-28T22:02:15.077Z,66.63
2016-07-28T22:03:15.075Z,67.11
2016-07-28T22:04:15.077Z,67.11
2016-07-28T22:05:15.083Z,66.72
2016-07-28T22:06:15.080Z,66.72
2016-07-28T22:07:15.085Z,66.63
2016-07-28T22:08:15.085Z,66.72
2016-07-28T22:09:15.086Z,66.63
2016-07-28T22:10:15.092Z,66.82
2016-07-28T22:11:15.084Z,66.72
2016-07-28T22:12:15.092Z,66.82
2016-07-28T22:13:15.095Z,66.82
2016-07-28T22:14:15.095Z,66.82
2016-07-28T22:15:15.098Z,66.72
2016-07-28T22:17:15.098Z,66.82
2016-07-28T22:18:15.100Z,66.92
2016-07-28T22:19:15.098Z,67.02
2016-07-28T22:20:15.108Z,67.02
2016-07-28T22:21:15.105Z,67.02
2016-07-28T22:22:15.112Z,67.02
2016-07-28T22:23:15.110Z,67.02
2016-07-28T22:24:15.111Z,67.02
2016-07-28T22:25:15.117Z,67.21
2016-07-28T22:26:15.117Z,67.02
2016-07-28T22:27:15.113Z,66.92
2016-07-28T22:28:15.114Z,66.82
2016-07-28T22:29:15.121Z,66.24
2016-07-28T22:30:15.123Z,67.21
2016-07-28T22:31:15.123Z,66.34
2016-07-28T22:32:15.125Z,66.44
2016-07-28T22:33:15.137Z,66.72
2016-07-28T22:34:15.130Z,66.82
2016-07-28T22:35:15.129Z,66.63
2016-07-28T22:36:15.129Z,66.82
2016-07-28T22:37:15.128Z,66.72
2016-07-28T22:38:15.142Z,66.44
2016-07-28T22:39:15.138Z,66.63
2016-07-28T22:40:15.133Z,66.53
2016-07-28T22:41:15.141Z,66.82
2016-07-28T22:42:15.143Z,66.63
2016-07-28T22:43:15.141Z,66.63
2016-07-28T22:44:15.142Z,66.82
2016-07-28T22:45:15.149Z,66.63
2016-07-28T22:46:15.150Z,66.53
2016-07-28T22:47:15.151Z,66.44
2016-07-28T22:48:15.151Z,66.53
2016-07-28T22:49:15.151Z,66.72
2016-07-28T22:50:15.150Z,66.53
2016-07-28T22:51:15.159Z,66.53
2016-07-28T22:52:15.153Z,66.63
2016-07-28T22:53:15.161Z,66.44
2016-07-28T22:54:15.161Z,66.44
2016-07-28T22:55:15.358Z,66.72
2016-07-28T22:56:15.174Z,66.63
2016-07-28T22:57:15.166Z,66.72
2016-07-28T22:58:15.162Z,66.72
2016-07-28T22:59:15.219Z,66.72
2016-07-28T23:00:15.165Z,66.82
2016-07-28T23:01:15.170Z,66.82
2016-07-28T23:02:15.170Z,66.72
2016-07-28T23:03:15.173Z,66.69
2016-07-28T23:04:15.182Z,66.63
2016-07-28T23:05:15.173Z,66.72
2016-07-28T23:06:15.179Z,66.72
2016-07-28T23:07:15.182Z,66.69
2016-07-28T23:08:15.376Z,66.79
2016-07-28T23:09:15.186Z,66.63
2016-07-28T23:10:15.183Z,66.6
2016-07-28T23:11:15.183Z,66.4
2016-07-28T23:12:15.174Z,66.6
2016-07-28T23:13:15.184Z,66.69
2016-07-28T23:14:15.186Z,66.6
2016-07-28T23:15:15.187Z,66.72
2016-07-28T23:16:15.192Z,66.53
2016-07-28T23:17:15.194Z,66.72
2016-07-28T23:18:15.190Z,66.92
2016-07-28T23:19:15.195Z,66.4
2016-07-28T23:20:15.197Z,66.3
2016-07-28T23:21:15.196Z,66.3
2016-07-28T23:22:15.195Z,66.11
2016-07-28T23:23:15.197Z,66.4
2016-07-28T23:24:15.199Z,66.2
2016-07-28T23:25:15.205Z,66.89
2016-07-28T23:26:15.208Z,66.6
2016-07-28T23:27:15.207Z,66.11
2016-07-28T23:28:15.212Z,66.82
2016-07-28T23:29:15.214Z,66.02
2016-07-28T23:30:15.212Z,66.11
2016-07-28T23:31:15.216Z,66.02
2016-07-28T23:32:15.212Z,66.2
2016-07-28T23:33:15.217Z,66.99
2016-07-28T23:34:15.222Z,66.89
2016-07-28T23:35:15.216Z,66.5
2016-07-28T23:36:15.223Z,66.4
2016-07-28T23:37:15.426Z,66.5
2016-07-28T23:38:15.220Z,66.69
2016-07-28T23:39:15.225Z,66.5
2016-07-28T23:40:15.437Z,66.3
2016-07-28T23:41:15.227Z,66.69
2016-07-28T23:42:15.232Z,66.69
2016-07-28T23:43:15.234Z,66.5
2016-07-28T23:44:15.435Z,66.6
2016-07-28T23:45:15.440Z,66.69
2016-07-28T23:46:15.233Z,65.72
2016-07-28T23:47:15.233Z,66.11
2016-07-28T23:48:15.242Z,66.4
2016-07-28T23:49:15.241Z,66.5
2016-07-28T23:50:15.243Z,66.2
2016-07-28T23:51:15.239Z,66.4
2016-07-28T23:52:15.240Z,66.3
2016-07-28T23:53:15.245Z,66.3
2016-07-28T23:54:15.251Z,66.4
2016-07-28T23:55:15.247Z,66.6
2016-07-28T23:56:15.248Z,66.3
2016-07-28T23:57:15.251Z,66.4
2016-07-28T23:58:15.252Z,66.4
2016-07-28T23:59:15.309Z,66.5
